Time;durP1;ratioP1;P1;durP2;ratioP2;P2;SDS_P1;SDS_P2;PMS_P1;PMS_P2;Temp;Humidity;BMP_temperature;BMP_pressure;BME280_temperature;BME280_humidity;BME280_pressure;Samples;Min_cycle;Max_cycle;Signal;HPM_P1;HPM_P2
2023/09/14 00:01:00;;;;;;;3.97;1.53;;;;;;;15.74;100.00;100277.56;12181132;19;21014;-86
2023/09/14 00:05:03;;;;;;;9.30;1.60;;;;;;;15.64;100.00;100283.84;12200868;19;20018;-87
2023/09/14 00:09:04;;;;;;;4.25;1.52;;;;;;;15.54;100.00;100285.78;12180660;19;20034;-86
2023/09/14 00:13:08;;;;;;;3.40;1.80;;;;;;;15.48;100.00;100293.25;12206180;19;20464;-86
2023/09/14 00:17:10;;;;;;;4.88;1.38;;;;;;;15.43;100.00;100290.44;12202147;19;20010;-87
2023/09/14 00:21:11;;;;;;;3.40;1.53;;;;;;;15.35;100.00;100288.16;12183312;19;20018;-86
2023/09/14 00:25:13;;;;;;;4.65;1.70;;;;;;;15.25;100.00;100283.41;12207178;19;20003;-87
2023/09/14 00:29:15;;;;;;;5.50;2.00;;;;;;;15.16;100.00;100280.31;12202104;19;20013;-86
2023/09/14 00:33:17;;;;;;;5.93;1.90;;;;;;;15.06;100.00;100279.41;12178721;19;20033;-89
2023/09/14 00:37:19;;;;;;;4.10;1.30;;;;;;;14.98;100.00;100281.56;12200742;19;20599;-85
2023/09/14 00:41:21;;;;;;;4.60;1.90;;;;;;;14.91;100.00;100272.66;12201644;19;20635;-86
2023/09/14 00:45:23;;;;;;;6.15;1.77;;;;;;;14.85;100.00;100268.19;12174586;19;20479;-87
2023/09/14 00:49:24;;;;;;;4.47;1.60;;;;;;;14.78;100.00;100273.97;12202544;19;20006;-85
2023/09/14 00:53:26;;;;;;;3.45;1.75;;;;;;;14.71;100.00;100266.97;12204044;19;20014;-87
2023/09/14 00:57:28;;;;;;;6.47;1.60;;;;;;;14.64;100.00;100269.16;12178083;19;20078;-86
2023/09/14 01:01:31;;;;;;;4.30;2.05;;;;;;;14.60;100.00;100274.38;12201308;19;20021;-86
2023/09/14 01:05:34;;;;;;;6.60;2.08;;;;;;;14.54;100.00;100265.16;12196727;19;20010;-86
2023/09/14 01:09:36;;;;;;;8.87;1.97;;;;;;;14.47;100.00;100272.03;12179753;19;20006;-86
2023/09/14 01:13:38;;;;;;;3.22;1.90;;;;;;;14.44;100.00;100265.06;12202143;19;20010;-85
2023/09/14 01:18:07;;;;;;;7.85;2.13;;;;;;;14.40;100.00;100272.25;12207500;19;20361;-85
2023/09/14 01:22:15;;;;;;;5.47;2.08;;;;;;;14.36;100.00;100277.47;12192343;19;20015;-87
2023/09/14 01:26:17;;;;;;;7.60;2.53;;;;;;;14.33;100.00;100277.16;12214987;19;20006;-86
2023/09/14 01:30:19;;;;;;;6.93;2.20;;;;;;;14.23;100.00;100279.84;12186499;19;20034;-86
2023/09/14 01:34:21;;;;;;;4.13;1.73;;;;;;;14.18;100.00;100274.25;12212836;19;20011;-86
2023/09/14 01:38:25;;;;;;;6.65;2.08;;;;;;;14.14;100.00;100274.78;12211989;19;20021;-87
2023/09/14 01:42:28;;;;;;;6.03;2.03;;;;;;;14.12;100.00;100276.13;12192542;19;20007;-87
2023/09/14 01:46:32;;;;;;;5.77;1.90;;;;;;;14.06;100.00;100277.19;12210128;19;20010;-86
2023/09/14 01:50:34;;;;;;;5.30;2.13;;;;;;;14.03;100.00;100272.16;12209906;19;20019;-86
2023/09/14 01:54:36;;;;;;;5.85;1.80;;;;;;;14.00;100.00;100279.06;12187664;19;20074;-86
2023/09/14 01:58:38;;;;;;;5.80;2.08;;;;;;;13.96;100.00;100277.91;12211864;19;20025;-86
2023/09/14 02:02:39;;;;;;;4.72;2.30;;;;;;;13.94;100.00;100282.03;12217187;19;20022;-83
2023/09/14 02:06:41;;;;;;;8.52;2.08;;;;;;;13.91;100.00;100283.41;12190867;19;20015;-86
2023/09/14 02:10:43;;;;;;;5.95;1.90;;;;;;;13.87;100.00;100279.47;12211269;19;20814;-86
2023/09/14 02:14:45;;;;;;;4.78;1.95;;;;;;;13.82;100.00;100276.66;12219454;19;20014;-88
2023/09/14 02:18:51;;;;;;;6.50;2.08;;;;;;;13.78;100.00;100279.09;12195098;19;20042;-88
2023/09/14 02:22:53;;;;;;;6.72;2.20;;;;;;;13.80;100.00;100279.69;12214020;19;20477;-87
2023/09/14 02:26:55;;;;;;;3.80;1.77;;;;;;;13.77;100.00;100282.13;12213642;19;20480;-87
2023/09/14 02:30:56;;;;;;;8.05;1.85;;;;;;;13.73;100.00;100287.34;12189138;19;20015;-85
2023/09/14 02:34:58;;;;;;;6.15;2.08;;;;;;;13.65;100.00;100294.19;12215817;19;20014;-86
2023/09/14 02:39:00;;;;;;;6.20;2.13;;;;;;;13.54;100.00;100281.31;12188787;19;20477;-85
2023/09/14 02:43:02;;;;;;;6.18;2.15;;;;;;;13.53;100.00;100289.88;12217238;19;20052;-85
2023/09/14 02:47:04;;;;;;;5.13;2.35;;;;;;;13.46;100.00;100298.38;12212201;19;20477;-84
2023/09/14 02:51:06;;;;;;;7.18;1.70;;;;;;;13.43;100.00;100309.97;12189148;19;20007;-85
2023/09/14 02:55:08;;;;;;;6.43;2.22;;;;;;;13.41;100.00;100301.06;12211749;19;20007;-86
2023/09/14 02:59:11;;;;;;;6.28;2.15;;;;;;;13.38;100.00;100305.19;12208114;19;20014;-86
2023/09/14 03:03:13;;;;;;;5.30;1.75;;;;;;;13.36;100.00;100301.03;12192693;19;20011;-84
2023/09/14 03:07:16;;;;;;;4.00;2.20;;;;;;;13.36;100.00;100306.56;12217619;19;20078;-85
2023/09/14 03:11:18;;;;;;;6.18;2.20;;;;;;;13.36;100.00;100299.09;12216489;19;20006;-85
2023/09/14 03:15:21;;;;;;;6.07;2.00;;;;;;;13.37;100.00;100316.53;12207108;19;20014;-85
2023/09/14 03:19:24;;;;;;;4.32;2.47;;;;;;;13.35;100.00;100313.16;12246825;19;20501;-85
2023/09/14 03:23:26;;;;;;;5.47;2.40;;;;;;;13.31;100.00;100323.09;12254156;19;20303;-85
2023/09/14 03:27:29;;;;;;;8.13;2.37;;;;;;;13.28;100.00;100318.06;12204145;19;20699;-86
2023/09/14 03:31:32;;;;;;;7.10;2.55;;;;;;;13.23;100.00;100324.31;12218533;19;20019;-84
2023/09/14 03:35:35;;;;;;;6.07;1.95;;;;;;;13.15;100.00;100327.53;12213618;19;20377;-85
2023/09/14 03:39:37;;;;;;;6.20;2.33;;;;;;;13.14;100.00;100334.97;12187754;19;20034;-85
2023/09/14 03:43:40;;;;;;;8.45;2.40;;;;;;;13.12;100.00;100328.06;12212335;19;20045;-85
2023/09/14 03:47:42;;;;;;;;;;;;;;;13.08;100.00;100330.47;12207346;19;20477;-84
2023/09/14 03:51:45;;;;;;;5.45;2.17;;;;;;;13.07;100.00;100336.25;12191437;19;19919;-84
2023/09/14 03:55:47;;;;;;;3.75;1.90;;;;;;;13.04;100.00;100342.31;12201105;19;20006;-84
2023/09/14 03:59:48;;;;;;;8.50;2.50;;;;;;;13.02;100.00;100347.25;12207054;19;20014;-85
2023/09/14 04:03:50;;;;;;;5.53;2.30;;;;;;;12.96;100.00;100338.84;12182260;19;20011;-85
2023/09/14 04:07:56;;;;;;;7.05;2.50;;;;;;;12.93;100.00;100347.66;12203984;19;20014;-84
2023/09/14 04:11:58;;;;;;;5.95;2.10;;;;;;;12.86;100.00;100349.78;12199376;19;20090;-83
2023/09/14 04:16:02;;;;;;;4.05;2.17;;;;;;;12.85;100.00;100350.00;12204506;19;20015;-84
2023/09/14 04:20:11;;;;;;;5.32;2.30;;;;;;;12.83;100.00;100355.81;12205438;19;20477;-84
2023/09/14 04:24:14;;;;;;;3.92;2.22;;;;;;;12.81;100.00;100359.91;12184647;19;20030;-84
2023/09/14 04:28:21;;;;;;;5.87;2.20;;;;;;;12.77;100.00;100359.59;12204038;19;20758;-84
2023/09/14 04:32:23;;;;;;;5.07;3.00;;;;;;;12.71;100.00;100355.88;12206381;19;20026;-85
2023/09/14 04:36:25;;;;;;;5.10;2.30;;;;;;;12.70;100.00;100359.75;12182181;19;20007;-85
2023/09/14 04:40:27;;;;;;;5.95;2.53;;;;;;;12.68;100.00;100355.56;12201703;19;20934;-83
2023/09/14 04:44:29;;;;;;;7.10;2.25;;;;;;;12.69;100.00;100360.81;12200854;19;19998;-85
2023/09/14 04:48:31;;;;;;;5.35;2.60;;;;;;;12.72;100.00;100365.84;12180351;19;20015;-85
2023/09/14 04:52:33;;;;;;;8.30;2.35;;;;;;;12.71;100.00;100371.66;12207072;19;20019;-85
2023/09/14 04:56:35;;;;;;;7.13;2.58;;;;;;;12.70;100.00;100369.94;12201968;19;20010;-85
2023/09/14 05:00:37;;;;;;;10.05;2.53;;;;;;;12.75;100.00;100362.59;12179714;19;20014;-86
2023/09/14 05:04:39;;;;;;;4.67;2.30;;;;;;;12.76;100.00;100372.56;12201336;19;20011;-85
2023/09/14 05:08:41;;;;;;;7.63;2.50;;;;;;;12.79;100.00;100362.94;12203933;19;20113;-85
2023/09/14 05:12:45;;;;;;;6.85;2.42;;;;;;;12.80;100.00;100361.00;12189258;19;20023;-86
2023/09/14 05:16:47;;;;;;;6.60;2.50;;;;;;;12.81;100.00;100365.44;12201872;19;20085;-85
2023/09/14 05:20:49;;;;;;;9.98;2.47;;;;;;;12.84;100.00;100364.94;12200994;19;20011;-85
2023/09/14 05:24:53;;;;;;;9.93;2.65;;;;;;;12.85;100.00;100377.66;12180631;19;20105;-85
2023/09/14 05:28:55;;;;;;;6.85;2.65;;;;;;;12.86;100.00;100373.84;12203714;19;20126;-86
2023/09/14 05:32:57;;;;;;;12.75;2.72;;;;;;;12.92;100.00;100381.13;12209619;19;20014;-86
2023/09/14 05:36:59;;;;;;;7.35;2.70;;;;;;;12.94;100.00;100378.94;12182144;19;20041;-86
2023/09/14 05:41:03;;;;;;;8.15;3.03;;;;;;;12.93;100.00;100380.84;12199268;19;20006;-84
2023/09/14 05:45:11;;;;;;;7.15;2.97;;;;;;;12.91;100.00;100382.19;12178618;19;20017;-85
2023/09/14 05:49:14;;;;;;;7.22;2.60;;;;;;;12.91;100.00;100387.72;12210559;19;20015;-84
2023/09/14 05:53:17;;;;;;;9.40;2.80;;;;;;;12.94;100.00;100387.25;12255840;19;20018;-85
2023/09/14 05:57:18;;;;;;;6.57;3.20;;;;;;;12.98;100.00;100394.78;12235757;19;20027;-84
2023/09/14 06:01:21;;;;;;;9.27;2.70;;;;;;;13.00;100.00;100389.00;12255857;19;20256;-85
2023/09/14 06:05:23;;;;;;;9.07;2.47;;;;;;;13.02;100.00;100395.09;12229823;19;20276;-85
2023/09/14 06:09:27;;;;;;;7.57;2.75;;;;;;;13.07;100.00;100394.38;12189396;19;20500;-86
2023/09/14 06:13:29;;;;;;;5.25;2.17;;;;;;;13.12;100.00;100398.06;12212661;19;20002;-84
2023/09/14 06:17:31;;;;;;;6.93;3.03;;;;;;;13.17;100.00;100388.97;12206146;19;20010;-85
2023/09/14 06:21:33;;;;;;;5.78;2.33;;;;;;;13.21;100.00;100396.53;12187671;19;20115;-84
2023/09/14 06:25:35;;;;;;;8.57;2.72;;;;;;;13.25;100.00;100398.78;12206622;19;20465;-85
2023/09/14 06:29:37;;;;;;;7.72;2.53;;;;;;;13.31;100.00;100400.59;12207198;19;20018;-85
2023/09/14 06:33:38;;;;;;;6.85;2.97;;;;;;;13.38;100.00;100398.47;12190615;19;20014;-86
2023/09/14 06:37:40;;;;;;;7.03;2.42;;;;;;;13.44;100.00;100394.66;12209684;19;20363;-86
2023/09/14 06:41:42;;;;;;;4.63;2.40;;;;;;;13.52;100.00;100390.66;12207208;19;20014;-84
2023/09/14 06:45:44;;;;;;;6.23;2.77;;;;;;;13.62;100.00;100388.00;12172824;19;20078;-85
2023/09/14 06:49:46;;;;;;;6.73;2.73;;;;;;;13.70;100.00;100390.34;12182879;19;20422;-85
2023/09/14 06:53:50;;;;;;;7.78;3.28;;;;;;;13.81;100.00;100394.09;12212644;19;20013;-86
2023/09/14 06:57:51;;;;;;;5.75;2.70;;;;;;;13.94;100.00;100403.94;12189128;19;20010;-85
2023/09/14 07:01:53;;;;;;;9.10;2.80;;;;;;;14.08;100.00;100408.84;12209110;19;20011;-85
2023/09/14 07:05:55;;;;;;;9.57;3.45;;;;;;;14.22;100.00;100400.09;12213272;19;20010;-85
2023/09/14 07:09:57;;;;;;;6.65;2.67;;;;;;;14.40;100.00;100404.50;12191605;19;20007;-85
2023/09/14 07:14:01;;;;;;;9.13;3.33;;;;;;;14.56;100.00;100404.41;12225468;19;20018;-85
2023/09/14 07:18:03;;;;;;;10.57;3.40;;;;;;;14.73;100.00;100409.03;12217386;19;20014;-83
2023/09/14 07:22:05;;;;;;;12.07;3.42;;;;;;;14.95;100.00;100409.75;12250598;19;20019;-84
2023/09/14 07:26:07;;;;;;;8.20;2.40;;;;;;;15.16;100.00;100421.03;12246402;19;20036;-84
2023/09/14 07:30:11;;;;;;;11.07;3.13;;;;;;;15.33;100.00;100416.19;12195017;19;20472;-84
2023/09/14 07:34:13;;;;;;;6.05;2.25;;;;;;;15.55;100.00;100416.03;12208820;19;20504;-84
2023/09/14 07:38:15;;;;;;;11.00;2.95;;;;;;;15.81;100.00;100419.00;12209032;19;20081;-85
2023/09/14 07:42:17;;;;;;;9.40;2.90;;;;;;;16.09;100.00;100421.38;12187707;19;22381;-84
2023/09/14 07:46:19;;;;;;;8.38;3.15;;;;;;;16.38;100.00;100438.44;12206913;19;20013;-85
2023/09/14 07:50:21;;;;;;;9.65;2.45;;;;;;;16.61;100.00;100430.72;12206669;19;20010;-84
2023/09/14 07:54:23;;;;;;;4.83;2.60;;;;;;;16.90;100.00;100430.25;12184951;19;20010;-84
2023/09/14 07:58:25;;;;;;;8.15;3.53;;;;;;;17.29;100.00;100438.88;12205670;19;20018;-85
2023/09/14 08:02:27;;;;;;;6.53;2.50;;;;;;;17.68;100.00;100441.88;12202280;19;20481;-84
2023/09/14 08:06:29;;;;;;;9.93;4.13;;;;;;;18.02;100.00;100432.91;12186612;19;20006;-84
2023/09/14 08:10:31;;;;;;;6.30;2.55;;;;;;;18.23;100.00;100439.22;12206602;19;20006;-85
2023/09/14 08:14:33;;;;;;;6.57;2.53;;;;;;;18.49;100.00;100434.38;12204008;19;20014;-86
2023/09/14 08:18:35;;;;;;;7.25;2.22;;;;;;;18.75;99.53;100437.03;12183911;19;20473;-82
2023/09/14 08:22:37;;;;;;;6.43;1.67;;;;;;;18.95;96.65;100436.06;12206057;19;20031;-84
2023/09/14 08:26:39;;;;;;;12.88;3.13;;;;;;;19.15;89.86;100438.69;12203575;19;20010;-87
2023/09/14 08:30:41;;;;;;;5.57;2.07;;;;;;;19.04;90.09;100440.75;12182302;19;20010;-84
2023/09/14 08:34:43;;;;;;;8.35;3.00;;;;;;;18.72;90.19;100454.34;12205598;19;20553;-84
2023/09/14 08:38:45;;;;;;;5.55;1.83;;;;;;;18.40;92.13;100458.41;12203831;19;20047;-85
2023/09/14 08:42:51;;;;;;;7.13;2.57;;;;;;;18.18;94.05;100451.25;12181666;19;20086;-85
2023/09/14 08:46:55;;;;;;;9.23;3.05;;;;;;;18.28;94.67;100449.53;12203362;19;20075;-85
2023/09/14 08:50:59;;;;;;;12.20;3.92;;;;;;;18.56;93.51;100448.00;12202841;19;20682;-85
2023/09/14 08:55:04;;;;;;;6.95;2.00;;;;;;;19.02;90.77;100439.38;12204253;19;20050;-86
2023/09/14 08:59:07;;;;;;;;;;;;;;;19.29;89.00;100444.44;12205991;19;20018;-86
2023/09/14 09:03:09;;;;;;;5.78;1.67;;;;;;;19.43;85.63;100442.66;12178521;19;19927;-85
2023/09/14 09:07:11;;;;;;;7.30;1.80;;;;;;;19.45;84.61;100429.19;12202529;19;19999;-86
2023/09/14 09:11:16;;;;;;;6.30;1.95;;;;;;;19.69;82.39;100434.88;12201367;19;20007;-88
2023/09/14 09:15:18;;;;;;;6.85;1.75;;;;;;;19.77;82.42;100436.19;12184429;19;20050;-86
2023/09/14 09:19:20;;;;;;;7.07;1.90;;;;;;;20.00;79.91;100434.53;12202595;19;20346;-87
2023/09/14 09:23:25;;;;;;;8.50;2.38;;;;;;;19.93;76.47;100432.09;12206363;19;20118;-87
2023/09/14 09:32:26;;;;;;;5.40;2.58;;;;;;;20.04;75.58;100427.22;12202047;19;20571;-87
2023/09/14 09:37:05;;;;;;;5.20;1.60;;;;;;;20.35;73.58;100426.84;12178374;19;20149;-87
2023/09/14 09:41:12;;;;;;;5.35;1.63;;;;;;;20.31;72.75;100434.16;12239801;19;20006;-85
2023/09/14 09:45:14;;;;;;;10.63;2.00;;;;;;;20.33;72.54;100424.34;12200054;19;20010;-85
2023/09/14 09:49:18;;;;;;;6.53;1.25;;;;;;;20.54;72.08;100422.13;12217259;19;21804;-86
2023/09/14 09:53:21;;;;;;;5.07;1.55;;;;;;;20.59;69.99;100418.44;12220324;19;20015;-87
2023/09/14 09:57:28;;;;;;;5.32;1.90;;;;;;;20.72;65.09;100420.47;12191919;19;20026;-85
2023/09/14 10:01:41;;;;;;;8.27;1.92;;;;;;;20.88;64.35;100416.31;12209787;19;20052;-87
2023/09/14 10:06:08;;;;;;;5.45;1.67;;;;;;;20.99;65.42;100410.53;12213306;19;20010;-87
2023/09/14 10:10:34;;;;;;;7.15;3.15;;;;;;;21.04;67.28;100408.47;12182984;19;20011;-89
2023/09/14 10:14:40;;;;;;;4.97;1.60;;;;;;;21.24;64.91;100401.69;12237217;19;20042;-87
2023/09/14 10:18:52;;;;;;;3.10;1.30;;;;;;;21.31;60.66;100401.28;12184443;19;20018;-87
2023/09/14 10:28:35;;;;;;;4.60;1.40;;;;;;;21.41;61.39;100397.50;12217380;19;20019;-85
2023/09/14 10:33:07;;;;;;;3.30;1.63;;;;;;;21.60;61.71;100399.09;12218588;19;20015;-86
2023/09/14 10:37:11;;;;;;;3.05;1.33;;;;;;;21.82;59.86;100394.75;12197398;19;20489;-87
2023/09/14 10:41:16;;;;;;;4.45;1.38;;;;;;;21.86;54.82;100390.19;12210722;19;20014;-87
2023/09/14 10:45:20;;;;;;;6.78;1.58;;;;;;;21.76;56.38;100384.78;12181858;19;19999;-86
2023/09/14 10:49:41;;;;;;;4.65;1.60;;;;;;;21.84;56.13;100393.31;12207329;19;20019;-86
2023/09/14 10:54:01;;;;;;;4.40;1.45;;;;;;;21.77;57.23;100389.25;12192661;19;20014;-85
2023/09/14 10:58:03;;;;;;;6.43;1.40;;;;;;;22.11;57.13;100385.19;12206517;19;20014;-86
2023/09/14 11:02:05;;;;;;;2.80;1.15;;;;;;;21.71;54.47;100387.69;12203963;19;20007;-86
2023/09/14 11:06:54;;;;;;;3.42;1.23;;;;;;;21.34;58.03;100381.88;12178875;19;20023;-86
2023/09/14 11:11:00;;;;;;;6.45;1.63;;;;;;;21.11;57.84;100368.84;12209809;19;20028;-86
2023/09/14 11:15:16;;;;;;;2.90;1.10;;;;;;;21.54;55.33;100371.47;12198424;19;20007;-86
2023/09/14 11:19:31;;;;;;;4.75;1.50;;;;;;;21.78;52.82;100365.69;12215097;19;20018;-84
2023/09/14 11:23:56;;;;;;;2.95;1.05;;;;;;;21.98;51.93;100356.84;12211670;19;20532;-84
2023/09/14 11:28:00;;;;;;;2.33;1.30;;;;;;;22.37;52.57;100363.88;12185283;19;20383;-86
2023/09/14 11:32:08;;;;;;;7.93;1.67;;;;;;;22.68;52.20;100355.56;12206243;19;20025;-86
2023/09/14 11:36:13;;;;;;;3.22;1.45;;;;;;;22.98;51.47;100347.56;12190944;19;20019;-86
2023/09/14 11:40:18;;;;;;;6.03;1.63;;;;;;;23.23;49.96;100348.03;12209505;19;20013;-87
2023/09/14 11:44:23;;;;;;;2.80;1.35;;;;;;;23.63;49.77;100346.91;12212691;19;20014;-88
2023/09/14 11:48:48;;;;;;;4.53;1.40;;;;;;;24.24;46.78;100337.84;12150269;19;20750;-88
2023/09/14 11:52:54;;;;;;;3.85;1.48;;;;;;;24.71;46.45;100340.91;12210738;19;20025;-88
2023/09/14 11:57:03;;;;;;;3.03;1.50;;;;;;;25.48;44.36;100341.13;12204086;19;20014;-88
2023/09/14 12:01:05;;;;;;;2.88;0.93;;;;;;;25.80;42.83;100343.31;12183383;19;20003;-89
2023/09/14 12:05:09;;;;;;;3.40;1.50;;;;;;;26.20;42.74;100328.81;12197384;19;20030;-87
2023/09/14 12:09:11;;;;;;;3.22;1.65;;;;;;;26.78;41.46;100331.91;12181315;19;20010;-88
2023/09/14 12:13:33;;;;;;;4.10;1.77;;;;;;;27.01;40.38;100330.34;12205789;19;20027;-87
2023/09/14 12:17:38;;;;;;;4.15;1.55;;;;;;;27.42;39.65;100322.91;12204469;19;20019;-86
2023/09/14 12:21:41;;;;;;;4.28;1.50;;;;;;;27.87;39.78;100318.38;12182152;19;20006;-86
2023/09/14 12:25:46;;;;;;;5.18;1.60;;;;;;;28.23;39.45;100320.38;12205021;19;21431;-88
2023/09/14 12:29:49;;;;;;;3.17;1.83;;;;;;;28.55;39.01;100321.38;12204195;19;20091;-89
2023/09/14 12:33:53;;;;;;;6.25;1.80;;;;;;;29.13;37.72;100312.53;12184757;19;20368;-86
2023/09/14 12:38:02;;;;;;;4.32;1.52;;;;;;;29.60;34.28;100310.91;12203069;19;20010;-87
2023/09/14 12:42:05;;;;;;;7.93;2.88;;;;;;;29.29;34.55;100304.84;12186501;19;20023;-90
2023/09/14 12:46:07;;;;;;;4.65;1.90;;;;;;;29.62;35.39;100314.25;12212312;19;20010;-87
2023/09/14 12:50:15;;;;;;;5.80;2.40;;;;;;;30.11;35.09;100303.31;12204997;19;20022;-87
2023/09/14 12:54:26;;;;;;;5.15;1.83;;;;;;;30.54;33.95;100286.41;12191015;19;20020;-88
2023/09/14 12:58:29;;;;;;;5.70;2.30;;;;;;;30.56;33.56;100284.00;12202993;19;20093;-87
2023/09/14 13:02:35;;;;;;;3.72;2.33;;;;;;;30.45;33.03;100283.78;12200236;19;20263;-88
2023/09/14 13:06:37;;;;;;;5.90;2.60;;;;;;;30.56;33.46;100276.28;12177512;19;20014;-88
2023/09/14 13:10:39;;;;;;;4.60;2.45;;;;;;;30.32;33.89;100280.25;12197625;19;20010;-86
2023/09/14 13:14:43;;;;;;;5.22;2.15;;;;;;;29.28;34.37;100286.19;12206292;19;20018;-86
2023/09/14 13:18:47;;;;;;;6.18;2.80;;;;;;;28.14;36.03;100288.53;12179227;19;20021;-87
2023/09/14 13:22:50;;;;;;;7.40;2.95;;;;;;;27.01;37.90;100285.09;12197549;19;20027;-87
2023/09/14 13:26:52;;;;;;;5.43;2.42;;;;;;;26.25;38.22;100286.25;12200177;19;20010;-86
2023/09/14 13:30:54;;;;;;;4.65;2.60;;;;;;;25.95;40.35;100282.66;12177359;19;20011;-84
2023/09/14 13:34:55;;;;;;;8.02;2.00;;;;;;;25.46;40.81;100276.56;12210021;19;20770;-85
2023/09/14 13:39:00;;;;;;;3.75;2.08;;;;;;;25.74;39.58;100270.47;12201258;19;20413;-86
2023/09/14 13:43:07;;;;;;;4.45;2.28;;;;;;;26.97;38.26;100266.34;12205123;19;20014;-87
2023/09/14 13:47:09;;;;;;;4.85;1.90;;;;;;;28.14;36.87;100252.50;12201240;19;20007;-86
2023/09/14 13:51:11;;;;;;;5.95;2.15;;;;;;;29.03;35.96;100247.81;12181237;19;20007;-86
2023/09/14 13:55:16;;;;;;;3.80;1.80;;;;;;;29.87;34.90;100250.38;12203772;19;20550;-87
2023/09/14 13:59:18;;;;;;;4.82;1.70;;;;;;;30.17;34.00;100242.13;12194960;19;20024;-86
2023/09/14 14:03:21;;;;;;;;;;;;;;;29.35;34.70;100248.66;12175845;19;20014;-86
2023/09/14 14:07:23;;;;;;;4.50;1.58;;;;;;;27.86;36.54;100237.44;12194826;19;19921;-85
2023/09/14 14:11:25;;;;;;;5.63;1.77;;;;;;;26.73;38.26;100233.97;12197938;19;20003;-86
2023/09/14 14:15:27;;;;;;;3.50;1.50;;;;;;;25.79;38.97;100227.91;12182247;19;20017;-83
2023/09/14 14:19:29;;;;;;;4.63;1.50;;;;;;;25.00;39.41;100227.44;12199673;19;20014;-84
2023/09/14 14:23:30;;;;;;;3.25;1.17;;;;;;;24.54;41.06;100235.50;12204468;19;20378;-86
2023/09/14 14:27:32;;;;;;;3.53;1.52;;;;;;;24.68;40.95;100235.31;12189804;19;20015;-84
2023/09/14 14:31:35;;;;;;;5.97;1.60;;;;;;;24.92;41.00;100219.84;12213382;19;20023;-81
2023/09/14 14:35:37;;;;;;;5.88;1.30;;;;;;;25.02;41.35;100216.66;12217685;19;20015;-84
2023/09/14 14:39:39;;;;;;;2.35;1.20;;;;;;;25.57;41.21;100210.13;12193860;19;20026;-84
2023/09/14 14:43:41;;;;;;;3.17;1.30;;;;;;;26.10;40.30;100211.44;12215394;19;19999;-85
2023/09/14 14:47:43;;;;;;;4.38;1.58;;;;;;;26.10;40.98;100210.63;12220387;19;20018;-85
2023/09/14 14:51:45;;;;;;;4.10;1.50;;;;;;;26.09;40.61;100203.31;12197133;19;20006;-85
2023/09/14 14:55:47;;;;;;;4.43;1.17;;;;;;;25.99;40.96;100212.19;12210163;19;20015;-84
2023/09/14 14:59:49;;;;;;;3.58;1.33;;;;;;;25.82;41.56;100208.34;12211164;19;20022;-84
2023/09/14 15:03:51;;;;;;;3.80;1.20;;;;;;;25.60;41.58;100208.59;12197066;19;20007;-86
2023/09/14 15:07:53;;;;;;;6.63;1.60;;;;;;;25.41;41.38;100209.88;12205775;19;20011;-85
2023/09/14 15:11:54;;;;;;;4.53;1.65;;;;;;;25.04;41.79;100205.03;12219524;19;20026;-85
2023/09/14 15:15:57;;;;;;;4.47;1.48;;;;;;;24.61;42.76;100206.00;12194582;19;20018;-86
2023/09/14 15:19:59;;;;;;;3.25;1.40;;;;;;;24.18;43.43;100204.84;12203948;19;20007;-86
2023/09/14 15:24:00;;;;;;;4.53;1.57;;;;;;;23.75;43.63;100205.66;12188725;19;20002;-86
2023/09/14 15:28:02;;;;;;;3.10;1.40;;;;;;;23.53;44.75;100202.91;12203165;19;20255;-86
2023/09/14 15:32:04;;;;;;;7.78;2.58;;;;;;;23.61;44.91;100199.31;12225218;19;20002;-83
2023/09/14 15:36:07;;;;;;;3.87;1.50;;;;;;;23.38;45.64;100199.44;12228067;19;20022;-86
2023/09/14 15:40:10;;;;;;;4.00;1.30;;;;;;;23.12;46.63;100198.50;12239726;19;20343;-84
2023/09/14 15:44:12;;;;;;;6.15;1.70;;;;;;;22.82;47.27;100203.78;12253230;19;20003;-86
2023/09/14 15:48:18;;;;;;;5.07;1.10;;;;;;;22.70;48.11;100200.75;12230485;19;20034;-85
2023/09/14 15:52:19;;;;;;;4.20;1.20;;;;;;;22.61;48.78;100206.31;12257363;19;20133;-85
2023/09/14 15:56:21;;;;;;;5.00;1.10;;;;;;;22.47;50.06;100197.97;12248537;19;19999;-84
2023/09/14 16:00:25;;;;;;;3.63;1.52;;;;;;;22.40;49.97;100207.97;12227397;19;20015;-84
2023/09/14 16:04:27;;;;;;;5.40;1.40;;;;;;;22.32;49.75;100203.13;12254965;19;20067;-86
2023/09/14 16:08:30;;;;;;;5.43;1.40;;;;;;;22.36;49.93;100199.34;12241359;19;20013;-86
2023/09/14 16:12:32;;;;;;;6.50;3.00;;;;;;;22.17;51.35;100198.72;12208177;19;20011;-86
2023/09/14 16:16:35;;;;;;;2.37;1.10;;;;;;;22.02;52.16;100197.09;12234977;19;20096;-85
2023/09/14 16:20:37;;;;;;;3.88;1.48;;;;;;;21.78;52.77;100192.59;12227220;19;20497;-84
2023/09/14 16:24:39;;;;;;;5.20;1.27;;;;;;;21.56;52.65;100206.53;12198815;19;20068;-85
2023/09/14 16:28:41;;;;;;;4.10;1.67;;;;;;;21.42;53.22;100197.31;12224640;19;20037;-85
2023/09/14 16:32:43;;;;;;;6.28;1.20;;;;;;;21.38;54.33;100202.72;12224341;19;20047;-85
2023/09/14 16:36:45;;;;;;;2.47;1.10;;;;;;;21.30;54.56;100197.84;12201263;19;20099;-85
2023/09/14 16:40:50;;;;;;;5.33;1.63;;;;;;;21.20;55.01;100203.63;12201058;19;20006;-85
2023/09/14 16:44:51;;;;;;;4.05;1.35;;;;;;;21.02;55.34;100191.38;12205785;19;20014;-85
2023/09/14 16:48:53;;;;;;;3.58;1.30;;;;;;;20.88;56.02;100186.63;12174537;19;21490;-85
2023/09/14 16:52:55;;;;;;;3.60;1.30;;;;;;;20.75;57.41;100198.59;12207120;19;20516;-83
2023/09/14 16:56:58;;;;;;;3.33;1.48;;;;;;;20.66;58.92;100198.47;12204327;19;20359;-84
2023/09/14 17:01:00;;;;;;;4.95;1.58;;;;;;;20.55;59.06;100199.81;12182020;19;20006;-86
2023/09/14 17:05:03;;;;;;;4.67;1.17;;;;;;;20.41;61.20;100205.34;12201295;19;21485;-84
2023/09/14 17:09:06;;;;;;;9.93;1.30;;;;;;;20.23;63.10;100209.84;12176363;19;19998;-85
2023/09/14 17:13:08;;;;;;;11.10;4.20;;;;;;;20.08;63.36;100206.44;12201582;19;20018;-85
2023/09/14 17:17:10;;;;;;;2.77;1.30;;;;;;;19.91;64.75;100210.63;12200865;19;20018;-85
2023/09/14 17:21:13;;;;;;;3.30;1.27;;;;;;;19.72;66.44;100219.00;12182536;19;20017;-83
2023/09/14 17:25:15;;;;;;;2.78;1.40;;;;;;;19.57;68.21;100208.84;12203597;19;20022;-83
2023/09/14 17:29:17;;;;;;;;;;;;;;;19.33;68.77;100208.00;12196440;19;20071;-85
2023/09/14 17:33:19;;;;;;;4.20;1.23;;;;;;;19.11;71.17;100198.22;12181341;19;20275;-85
2023/09/14 17:37:21;;;;;;;4.70;1.15;;;;;;;18.90;73.37;100208.78;12198308;19;20655;-83
2023/09/14 17:41:23;;;;;;;4.10;1.50;;;;;;;18.67;75.01;100198.38;12197276;19;20010;-85
2023/09/14 17:45:25;;;;;;;4.50;1.52;;;;;;;18.44;76.82;100202.78;12176305;19;20042;-85
2023/09/14 17:49:27;;;;;;;3.30;1.40;;;;;;;18.25;78.57;100207.44;12194242;19;19998;-85
2023/09/14 17:53:29;;;;;;;5.50;1.65;;;;;;;18.06;79.92;100199.75;12196632;19;20010;-84
2023/09/14 17:57:31;;;;;;;4.95;1.70;;;;;;;17.90;81.23;100200.97;12178208;19;20011;-86
2023/09/14 18:01:32;;;;;;;5.10;1.30;;;;;;;17.72;82.85;100208.84;12202928;19;20095;-85
2023/09/14 18:05:34;;;;;;;5.25;1.80;;;;;;;17.58;83.34;100210.63;12212977;19;20126;-87
2023/09/14 18:09:39;;;;;;;3.97;1.50;;;;;;;17.44;84.90;100212.38;12186645;19;20014;-86
2023/09/14 18:13:41;;;;;;;4.65;1.60;;;;;;;17.30;86.57;100218.53;12210322;19;20386;-85
2023/09/14 18:17:43;;;;;;;4.40;1.73;;;;;;;17.15;87.24;100215.81;12214547;19;20014;-86
2023/09/14 18:21:45;;;;;;;3.50;1.20;;;;;;;17.04;88.52;100219.75;12188764;19;20485;-87
2023/09/14 18:25:57;;;;;;;4.53;1.70;;;;;;;16.92;90.27;100222.84;12211585;19;20002;-84
2023/09/14 18:29:59;;;;;;;5.68;1.55;;;;;;;16.80;90.56;100223.13;12186901;19;20263;-86
2023/09/14 18:34:02;;;;;;;7.43;1.40;;;;;;;16.72;91.77;100218.13;12212249;19;20030;-88
2023/09/14 18:38:04;;;;;;;4.53;1.58;;;;;;;16.64;91.36;100227.88;12209876;19;20018;-87
2023/09/14 18:42:06;;;;;;;7.53;1.40;;;;;;;16.58;92.48;100230.94;12188557;19;20002;-86
2023/09/14 18:46:12;;;;;;;6.40;1.77;;;;;;;16.51;93.55;100228.47;12208300;19;20026;-86